Time;durP1;ratioP1;P1;durP2;ratioP2;P2;SDS_P1;SDS_P2;PMS_P1;PMS_P2;Temp;Humidity;BMP_temperature;BMP_pressure;BME280_temperature;BME280_humidity;BME280_pressure;Samples;Min_cycle;Max_cycle;Signal;HPM_P1;HPM_P2
2022/07/13 00:01:31;;;;;;;0.90;0.68;;;;;;;25.78;42.12;101059.19;5074084;28;20039;-73
2022/07/13 00:03:57;;;;;;;1.08;0.75;;;;;;;25.69;42.85;101047.28;5074112;28;20032;-73
2022/07/13 00:06:23;;;;;;;2.97;0.85;;;;;;;25.67;42.70;101044.00;5035680;28;20033;-73
2022/07/13 00:08:48;;;;;;;5.15;0.60;;;;;;;25.59;43.23;101049.56;5074255;28;20385;-73
2022/07/13 00:11:14;;;;;;;2.85;0.70;;;;;;;25.58;43.26;101044.28;5073983;28;20028;-73
2022/07/13 00:13:39;;;;;;;2.92;0.68;;;;;;;25.52;43.58;101037.25;5074050;28;20029;-73
2022/07/13 00:16:05;;;;;;;1.60;0.82;;;;;;;25.47;43.26;101044.13;5075566;28;20055;-73
2022/07/13 00:18:30;;;;;;;2.45;0.80;;;;;;;25.42;43.86;101042.41;5054596;28;20086;-73
2022/07/13 00:20:57;;;;;;;1.27;0.60;;;;;;;25.34;43.74;101039.84;5070962;28;20039;-73
2022/07/13 00:23:22;;;;;;;1.63;0.60;;;;;;;25.31;43.56;101038.59;5074439;28;20036;-73
2022/07/13 00:25:48;;;;;;;1.50;0.80;;;;;;;25.25;44.42;101037.28;5075134;28;20020;-73
2022/07/13 00:28:13;;;;;;;0.95;0.60;;;;;;;25.23;44.83;101033.19;5075245;28;20039;-73
2022/07/13 00:30:39;;;;;;;2.38;0.70;;;;;;;25.15;44.76;101033.03;5075210;28;20029;-73
2022/07/13 00:33:05;;;;;;;2.03;0.80;;;;;;;25.10;44.93;101032.53;5073785;28;20028;-73
2022/07/13 00:35:31;;;;;;;1.55;0.70;;;;;;;25.06;44.50;101035.31;5074724;28;20025;-73
2022/07/13 00:37:56;;;;;;;2.97;0.98;;;;;;;24.98;45.35;101033.53;5073933;28;20609;-73
2022/07/13 00:40:22;;;;;;;4.35;1.17;;;;;;;24.92;45.38;101030.22;5075196;28;20032;-73
2022/07/13 00:42:47;;;;;;;3.00;0.73;;;;;;;24.88;45.60;101023.66;5077166;28;20032;-73
2022/07/13 00:45:13;;;;;;;2.47;0.77;;;;;;;24.82;45.66;101024.34;5060848;28;20033;-73
2022/07/13 00:47:38;;;;;;;2.83;1.00;;;;;;;24.74;45.44;101024.22;5077770;28;20032;-73
2022/07/13 00:50:08;;;;;;;2.33;1.17;;;;;;;24.67;46.19;101024.09;5072049;28;20473;-73
2022/07/13 00:52:35;;;;;;;2.13;0.80;;;;;;;24.60;45.80;101023.97;5078427;28;20029;-73
2022/07/13 00:55:00;;;;;;;1.90;1.00;;;;;;;24.56;46.42;101028.75;5077068;28;20028;-73
2022/07/13 00:57:26;;;;;;;2.78;1.00;;;;;;;24.52;46.30;101030.72;5060306;28;20082;-73
2022/07/13 00:59:51;;;;;;;4.72;0.80;;;;;;;24.42;46.76;101025.63;5058777;28;20041;-73
2022/07/13 01:02:17;;;;;;;0.95;0.85;;;;;;;24.40;46.98;101019.47;5055894;28;20033;-73
2022/07/13 01:04:42;;;;;;;1.25;0.80;;;;;;;24.33;47.10;101025.03;5078249;28;20040;-73
2022/07/13 01:07:08;;;;;;;1.75;0.90;;;;;;;24.28;47.39;101017.63;5060607;28;20726;-73
2022/07/13 01:09:33;;;;;;;1.80;0.90;;;;;;;24.21;47.19;101017.50;5078055;28;20028;-73
2022/07/13 01:11:59;;;;;;;2.70;0.90;;;;;;;24.16;47.85;101015.78;5060080;28;20028;-73
2022/07/13 01:14:24;;;;;;;1.35;0.90;;;;;;;24.09;47.04;101009.97;5025692;28;20020;-73
2022/07/13 01:16:50;;;;;;;2.17;1.02;;;;;;;24.03;47.39;101022.81;5074755;28;20044;-73
2022/07/13 01:19:16;;;;;;;4.18;0.82;;;;;;;23.97;47.54;101018.63;5076905;28;20098;-73
2022/07/13 01:21:44;;;;;;;3.95;0.93;;;;;;;23.94;48.23;101019.38;5057162;28;20051;-73
2022/07/13 01:24:10;;;;;;;2.53;1.00;;;;;;;23.88;48.38;101012.38;5073309;28;20028;-73
2022/07/13 01:26:36;;;;;;;1.73;1.00;;;;;;;23.81;48.69;101022.34;5076540;28;20343;-73
2022/07/13 01:29:02;;;;;;;2.60;0.90;;;;;;;23.75;48.47;101018.16;5058040;28;20032;-73
2022/07/13 01:31:38;;;;;;;2.72;1.10;;;;;;;23.70;48.88;101012.75;5036655;28;20063;-73
2022/07/13 01:34:05;;;;;;;1.63;1.00;;;;;;;23.66;49.07;101016.72;5073813;28;20043;-73
2022/07/13 01:36:30;;;;;;;3.50;0.93;;;;;;;23.60;49.24;101016.19;5077397;28;20021;-73
2022/07/13 01:38:56;;;;;;;2.05;1.02;;;;;;;23.54;48.89;101017.66;5076235;28;20112;-73
2022/07/13 01:41:22;;;;;;;1.92;0.90;;;;;;;23.48;49.52;101016.31;5056506;28;20017;-73
2022/07/13 01:43:47;;;;;;;1.35;0.82;;;;;;;23.47;49.57;101009.00;5055464;28;20500;-73
2022/07/13 01:46:13;;;;;;;1.73;1.13;;;;;;;23.38;49.78;101010.03;5059337;28;20098;-73
2022/07/13 01:48:38;;;;;;;2.20;0.82;;;;;;;23.34;49.92;101003.44;5071348;28;20040;-73
2022/07/13 01:51:03;;;;;;;2.55;1.02;;;;;;;23.31;50.49;101006.19;5059700;28;20024;-73
2022/07/13 01:53:29;;;;;;;2.75;0.95;;;;;;;23.23;50.31;101012.88;5076310;28;20035;-73
2022/07/13 01:55:54;;;;;;;1.77;1.00;;;;;;;23.20;50.78;101003.09;5076998;28;20041;-73
2022/07/13 01:58:20;;;;;;;2.92;1.13;;;;;;;23.13;50.77;101003.78;5077197;28;20032;-73
2022/07/13 02:00:45;;;;;;;3.00;1.00;;;;;;;23.10;50.77;101003.69;5077128;28;20401;-73
2022/07/13 02:03:11;;;;;;;4.88;1.48;;;;;;;23.04;50.56;100994.66;5059161;28;20032;-73
2022/07/13 02:05:36;;;;;;;3.05;1.10;;;;;;;23.01;50.89;100998.19;5077012;28;20033;-73
2022/07/13 02:08:02;;;;;;;4.40;1.15;;;;;;;22.99;51.28;100996.94;5059099;28;20092;-73
2022/07/13 02:10:37;;;;;;;2.25;1.40;;;;;;;22.91;51.44;100996.72;5059090;28;20024;-73
2022/07/13 02:13:03;;;;;;;1.90;1.10;;;;;;;22.87;51.91;100992.16;5044897;28;20028;-73
2022/07/13 02:15:28;;;;;;;3.72;1.40;;;;;;;22.82;52.05;100989.63;5077245;28;20028;-73
2022/07/13 02:17:54;;;;;;;3.10;1.10;;;;;;;22.76;52.18;100989.03;5076482;28;20492;-73
2022/07/13 02:20:19;;;;;;;3.60;1.10;;;;;;;22.71;52.41;100992.19;5072473;28;20025;-73
2022/07/13 02:22:45;;;;;;;2.40;1.00;;;;;;;22.67;52.07;100992.06;5058824;28;20119;-73
2022/07/13 02:25:11;;;;;;;2.05;1.13;;;;;;;22.66;52.67;100989.63;5058970;28;20029;-73
2022/07/13 02:27:37;;;;;;;3.65;1.08;;;;;;;22.60;52.47;100988.25;5074983;28;20032;-73
2022/07/13 02:30:03;;;;;;;2.33;1.23;;;;;;;22.57;53.05;100988.97;5058459;28;20420;-73
2022/07/13 02:32:28;;;;;;;1.95;1.30;;;;;;;22.52;53.48;100990.06;5055567;28;20040;-73
2022/07/13 02:34:54;;;;;;;2.10;1.17;;;;;;;22.47;52.74;100984.66;5041690;28;20024;-73
2022/07/13 02:37:19;;;;;;;2.22;1.52;;;;;;;22.44;53.51;100983.38;5025768;28;20028;-73
2022/07/13 02:39:45;;;;;;;1.42;1.20;;;;;;;22.41;53.53;100972.78;5023620;28;20025;-73
2022/07/13 02:42:10;;;;;;;1.60;0.95;;;;;;;22.36;53.12;100978.72;5075135;28;20035;-73
2022/07/13 02:44:35;;;;;;;1.85;1.30;;;;;;;22.34;54.09;100978.25;5076309;28;20032;-73
2022/07/13 02:47:01;;;;;;;3.13;1.50;;;;;;;22.30;53.79;100977.34;5074685;28;20044;-73
2022/07/13 02:49:26;;;;;;;2.17;1.10;;;;;;;22.27;54.09;100983.72;5076212;28;20491;-73
2022/07/13 02:51:52;;;;;;;2.58;1.27;;;;;;;22.23;53.97;100983.63;5075160;28;20036;-73
2022/07/13 02:54:17;;;;;;;1.50;1.20;;;;;;;22.19;54.47;100987.53;5075115;28;20037;-73
2022/07/13 02:56:43;;;;;;;2.78;1.00;;;;;;;22.18;54.74;100985.91;5075992;28;20055;-73
2022/07/13 02:59:08;;;;;;;1.83;1.23;;;;;;;22.13;54.67;100986.13;5067482;28;20563;-73
2022/07/13 03:01:34;;;;;;;3.83;1.27;;;;;;;22.08;55.47;100984.38;5072622;28;20024;-73
2022/07/13 03:03:59;;;;;;;1.58;0.95;;;;;;;22.03;55.07;100982.63;5074399;28;20041;-73
2022/07/13 03:06:25;;;;;;;4.60;1.40;;;;;;;22.00;55.19;100983.34;5075919;28;20025;-73
2022/07/13 03:08:50;;;;;;;5.13;1.33;;;;;;;21.96;55.53;100979.59;5075971;28;20021;-73
2022/07/13 03:11:15;;;;;;;3.35;1.40;;;;;;;21.93;55.16;100988.81;5074499;28;20035;-73
2022/07/13 03:13:41;;;;;;;1.35;1.23;;;;;;;21.88;55.43;100989.06;5076234;28;20035;-73
2022/07/13 03:16:06;;;;;;;1.80;1.20;;;;;;;21.86;55.44;100997.06;5075950;28;20078;-73
2022/07/13 03:18:33;;;;;;;3.72;1.13;;;;;;;21.82;56.25;100990.50;5073256;28;20370;-73
2022/07/13 03:20:58;;;;;;;2.13;1.17;;;;;;;21.75;55.90;100978.97;5071604;28;20029;-73
2022/07/13 03:23:24;;;;;;;3.83;1.30;;;;;;;21.73;56.12;100981.34;5075993;28;20028;-73
2022/07/13 03:25:50;;;;;;;2.83;1.23;;;;;;;21.70;55.80;100980.03;5074421;28;20032;-72
2022/07/13 03:28:15;;;;;;;2.22;1.30;;;;;;;21.69;56.18;100983.25;5074665;28;20037;-73
2022/07/13 03:30:41;;;;;;;3.25;1.38;;;;;;;21.64;56.03;100978.66;5075669;28;20029;-72
2022/07/13 03:33:06;;;;;;;2.60;1.30;;;;;;;21.62;56.31;100983.88;5075400;28;20028;-73
2022/07/13 03:35:32;;;;;;;5.13;1.35;;;;;;;21.58;55.97;100985.75;5074547;28;20028;-73
2022/07/13 03:37:57;;;;;;;3.03;1.45;;;;;;;21.54;56.49;100980.00;5074450;28;20055;-73
2022/07/13 03:40:23;;;;;;;4.70;1.40;;;;;;;21.52;56.56;100982.34;5057965;28;20051;-72
2022/07/13 03:42:48;;;;;;;1.58;1.20;;;;;;;21.47;56.47;100979.75;5075200;28;20040;-72
2022/07/13 03:45:14;;;;;;;3.08;1.35;;;;;;;21.43;56.10;100984.50;5074262;28;20020;-73
2022/07/13 03:47:39;;;;;;;1.40;1.20;;;;;;;21.37;56.44;100974.63;5074122;28;20040;-73
2022/07/13 03:50:05;;;;;;;2.40;1.40;;;;;;;21.35;57.29;100976.94;5074109;28;20035;-73
2022/07/13 03:52:30;;;;;;;1.50;1.40;;;;;;;21.33;57.74;100984.94;5074120;28;20404;-73
2022/07/13 03:54:56;;;;;;;2.20;1.50;;;;;;;21.30;57.29;100983.66;5057526;28;20028;-73
2022/07/13 03:57:21;;;;;;;4.25;1.60;;;;;;;21.27;57.83;100981.53;5075452;28;20040;-73
2022/07/13 03:59:47;;;;;;;3.95;1.75;;;;;;;21.22;57.81;100986.59;5067614;28;20477;-73
2022/07/13 04:02:12;;;;;;;3.35;1.73;;;;;;;21.19;58.21;100988.97;5075157;28;20082;-73
2022/07/13 04:04:38;;;;;;;3.60;1.73;;;;;;;21.16;58.36;100975.56;5075420;28;20043;-73
2022/07/13 04:07:03;;;;;;;2.33;1.23;;;;;;;21.14;57.61;100975.06;5054212;28;20141;-73
2022/07/13 04:09:29;;;;;;;2.38;1.60;;;;;;;21.12;57.77;100980.28;5071240;28;20555;-72
2022/07/13 04:11:54;;;;;;;3.88;1.58;;;;;;;21.08;58.37;100972.84;5074299;28;20036;-72
2022/07/13 04:14:20;;;;;;;3.60;1.60;;;;;;;21.10;58.06;100970.50;5022530;28;20551;-72
2022/07/13 04:16:45;;;;;;;2.42;1.63;;;;;;;21.02;58.21;100969.44;5059900;28;20029;-72
2022/07/13 04:19:11;;;;;;;1.77;1.50;;;;;;;21.01;58.29;100969.81;5068901;28;20086;-73
2022/07/13 04:21:36;;;;;;;2.65;1.58;;;;;;;20.95;58.59;100960.75;5077923;28;20033;-72
2022/07/13 04:24:02;;;;;;;2.70;1.40;;;;;;;20.94;58.53;100970.38;5111582;28;20536;-73
2022/07/13 04:26:27;;;;;;;3.72;1.40;;;;;;;20.90;58.32;100964.63;5061508;28;20037;-73
2022/07/13 04:28:52;;;;;;;2.63;1.42;;;;;;;20.92;58.70;100969.91;5076554;28;20033;-72
2022/07/13 04:31:18;;;;;;;3.35;1.60;;;;;;;20.86;58.92;100965.69;5067789;28;20035;-73
2022/07/13 04:33:44;;;;;;;1.63;1.45;;;;;;;20.84;58.88;100968.03;5044452;28;20396;-72
2022/07/13 04:36:09;;;;;;;1.95;1.50;;;;;;;20.84;59.03;100979.31;5077408;28;20037;-72
2022/07/13 04:38:35;;;;;;;2.75;1.38;;;;;;;20.84;59.09;100976.50;5077562;28;20032;-72
2022/07/13 04:41:00;;;;;;;2.97;1.30;;;;;;;20.79;58.99;100973.94;5044351;28;20028;-73
2022/07/13 04:43:26;;;;;;;4.45;1.70;;;;;;;20.80;59.70;100976.38;5075583;28;20028;-72
2022/07/13 04:45:51;;;;;;;2.75;1.60;;;;;;;20.74;59.29;100974.97;5071945;28;20036;-72
2022/07/13 04:48:18;;;;;;;3.53;1.70;;;;;;;20.75;60.45;100976.63;5078411;28;20028;-72
2022/07/13 04:50:43;;;;;;;2.22;1.48;;;;;;;20.72;61.05;100978.16;5060732;28;20082;-72
2022/07/13 04:53:09;;;;;;;3.65;1.75;;;;;;;20.74;60.99;100978.63;5077416;28;20459;-72
2022/07/13 04:55:39;;;;;;;3.47;2.03;;;;;;;20.74;61.61;100977.81;5077027;28;20040;-72
2022/07/13 04:58:05;;;;;;;2.95;1.77;;;;;;;20.82;63.25;100976.88;5078479;28;20032;-72
2022/07/13 05:00:31;;;;;;;4.22;1.55;;;;;;;20.87;63.98;100973.81;5078403;28;20056;-72
2022/07/13 05:02:57;;;;;;;4.72;1.80;;;;;;;20.97;68.72;100972.50;5077983;28;20431;-72
2022/07/13 05:05:23;;;;;;;3.92;1.80;;;;;;;21.03;67.84;100970.25;5057163;28;20104;-72
2022/07/13 05:07:48;;;;;;;6.97;2.17;;;;;;;21.14;69.87;100968.59;5092950;28;20024;-72
2022/07/13 05:10:14;;;;;;;7.03;2.10;;;;;;;21.24;71.17;100978.63;5060453;28;20428;-73
2022/07/13 05:12:40;;;;;;;4.43;2.05;;;;;;;21.36;73.49;100979.41;5078106;28;20563;-72
2022/07/13 05:15:10;;;;;;;5.00;2.00;;;;;;;21.51;68.87;100979.91;5078366;28;20032;-73
2022/07/13 05:17:35;;;;;;;4.80;1.90;;;;;;;21.67;69.81;100977.13;5077990;28;20043;-73
2022/07/13 05:20:02;;;;;;;4.00;2.20;;;;;;;21.84;66.59;100980.50;5089263;28;20032;-73
2022/07/13 05:22:27;;;;;;;3.75;2.03;;;;;;;22.01;66.09;100973.69;5043630;28;20445;-73
2022/07/13 05:24:53;;;;;;;3.78;1.90;;;;;;;22.20;64.92;100986.34;5076639;28;20028;-73
2022/07/13 05:27:18;;;;;;;4.95;1.60;;;;;;;22.36;62.88;100990.03;5078016;28;20047;-72
2022/07/13 05:29:44;;;;;;;5.20;1.60;;;;;;;22.55;60.88;100980.84;5077904;28;20024;-72
2022/07/13 05:32:09;;;;;;;2.65;1.50;;;;;;;22.74;57.97;100980.13;5059945;28;20033;-73
2022/07/13 05:34:35;;;;;;;3.13;1.45;;;;;;;22.94;61.16;100984.66;5077763;28;20033;-73
2022/07/13 05:37:00;;;;;;;4.65;1.70;;;;;;;23.13;59.71;100985.97;5059575;28;20433;-73
2022/07/13 05:39:26;;;;;;;8.20;1.80;;;;;;;23.30;62.00;100985.56;5076577;28;20032;-73
2022/07/13 05:41:51;;;;;;;3.85;1.70;;;;;;;23.49;61.28;100986.78;5077349;28;20024;-73
2022/07/13 05:44:17;;;;;;;5.15;1.63;;;;;;;23.67;60.67;100987.97;5076132;28;20025;-73
2022/07/13 05:46:42;;;;;;;5.25;1.67;;;;;;;23.84;60.59;100993.25;5059350;28;20044;-73
2022/07/13 05:49:08;;;;;;;3.13;1.60;;;;;;;24.01;59.13;100991.16;5077459;28;20699;-73
2022/07/13 05:51:33;;;;;;;6.13;1.95;;;;;;;24.19;59.26;100989.50;5077086;28;20024;-73
2022/07/13 05:53:59;;;;;;;2.42;1.55;;;;;;;24.38;59.15;100987.84;5076031;28;20086;-73
2022/07/13 05:56:24;;;;;;;6.10;1.83;;;;;;;24.56;58.90;100983.31;5076192;28;20041;-73
2022/07/13 05:58:49;;;;;;;3.88;1.50;;;;;;;24.79;55.44;100993.84;5076076;28;20062;-73
2022/07/13 06:01:15;;;;;;;1.48;1.38;;;;;;;24.99;54.46;100986.91;5075776;28;20025;-73
2022/07/13 06:03:40;;;;;;;4.72;1.50;;;;;;;25.21;53.74;100990.09;5069301;28;20025;-73
2022/07/13 06:06:06;;;;;;;2.30;1.20;;;;;;;25.40;52.93;100985.09;5076108;28;20562;-72
2022/07/13 06:08:31;;;;;;;2.40;1.20;;;;;;;25.58;52.17;100976.84;5075935;28;20024;-72
2022/07/13 06:10:57;;;;;;;2.92;1.50;;;;;;;25.70;53.70;100977.81;5075960;28;20473;-72
2022/07/13 06:13:23;;;;;;;1.60;1.50;;;;;;;25.86;54.85;100981.31;5055983;28;20028;-72
2022/07/13 06:15:48;;;;;;;6.10;1.58;;;;;;;25.93;54.48;100986.25;5059448;28;20036;-72
2022/07/13 06:18:14;;;;;;;2.22;1.50;;;;;;;26.18;51.71;100983.69;5058741;28;20036;-72
2022/07/13 06:20:39;;;;;;;4.55;1.70;;;;;;;26.28;53.45;100980.16;5058807;28;20028;-73
2022/07/13 06:23:11;;;;;;;5.45;1.70;;;;;;;26.42;52.88;100986.00;5039021;28;20021;-72
2022/07/13 06:25:40;;;;;;;2.90;1.45;;;;;;;26.61;51.58;100984.19;5074691;28;20033;-72
2022/07/13 06:28:06;;;;;;;4.70;1.27;;;;;;;26.74;51.77;100985.50;5075667;28;20037;-71
2022/07/13 06:30:32;;;;;;;5.60;1.63;;;;;;;26.84;52.25;100990.50;5075660;28;20115;-71
2022/07/13 06:32:58;;;;;;;1.75;1.27;;;;;;;26.99;50.52;100990.59;5075468;28;20076;-71
2022/07/13 06:35:23;;;;;;;3.15;1.42;;;;;;;27.09;50.53;100984.16;5058669;28;20424;-68
2022/07/13 06:37:49;;;;;;;2.47;1.25;;;;;;;27.20;51.12;100990.78;5042016;28;20565;-68
2022/07/13 06:40:15;;;;;;;2.80;1.40;;;;;;;27.30;50.76;100994.91;5075104;28;20043;-68
2022/07/13 06:42:40;;;;;;;3.72;1.75;;;;;;;27.37;52.74;100995.78;5058767;28;20082;-68
2022/07/13 06:45:06;;;;;;;4.00;1.58;;;;;;;27.47;52.81;100999.94;5041893;28;20036;-68
2022/07/13 06:47:31;;;;;;;5.85;1.20;;;;;;;27.60;49.55;101003.25;5041146;28;20051;-68
2022/07/13 06:49:57;;;;;;;4.20;1.92;;;;;;;27.65;52.18;101002.88;5056138;28;20384;-68
2022/07/13 06:52:23;;;;;;;3.08;1.20;;;;;;;27.77;50.00;100996.81;5051825;28;20079;-68
2022/07/13 06:54:49;;;;;;;3.38;1.40;;;;;;;27.90;50.71;100999.38;5056330;28;20032;-68
2022/07/13 06:57:15;;;;;;;4.20;1.30;;;;;;;28.10;48.90;100992.09;5074890;28;20445;-68
2022/07/13 06:59:42;;;;;;;2.70;1.30;;;;;;;28.25;48.50;101005.22;5055322;28;20024;-69
2022/07/13 07:02:08;;;;;;;6.00;1.30;;;;;;;28.44;48.04;100995.47;5058655;28;20088;-68
2022/07/13 07:04:34;;;;;;;3.35;1.35;;;;;;;28.62;47.90;100997.56;5058421;28;20381;-68
2022/07/13 07:07:00;;;;;;;2.67;1.40;;;;;;;28.74;47.73;100997.97;5038451;28;20032;-68
2022/07/13 07:09:26;;;;;;;3.80;1.30;;;;;;;28.92;47.86;101000.84;5088851;28;20032;-69
2022/07/13 07:11:51;;;;;;;3.53;1.50;;;;;;;29.09;47.14;101004.13;5057588;28;20039;-69
2022/07/13 07:14:17;;;;;;;4.47;1.40;;;;;;;29.23;48.00;101004.13;5057608;28;20036;-68
2022/07/13 07:16:43;;;;;;;4.68;1.27;;;;;;;29.41;47.62;101004.06;5057979;28;20440;-68
2022/07/13 07:19:09;;;;;;;3.08;1.27;;;;;;;29.57;46.69;101001.59;5071035;28;20035;-68
2022/07/13 07:21:34;;;;;;;4.95;1.00;;;;;;;29.66;47.24;101000.38;5074721;28;20075;-68
2022/07/13 07:24:00;;;;;;;4.18;1.30;;;;;;;29.78;46.22;101003.63;5075938;28;20032;-69
2022/07/13 07:26:26;;;;;;;3.40;1.30;;;;;;;29.87;45.51;101000.31;5058027;28;20444;-69
2022/07/13 07:28:51;;;;;;;4.13;1.08;;;;;;;30.09;45.17;101006.75;5058080;28;20025;-69
2022/07/13 07:31:16;;;;;;;4.75;1.35;;;;;;;30.31;45.20;101001.72;5041232;28;20480;-68
2022/07/13 07:33:42;;;;;;;2.63;1.23;;;;;;;30.47;44.47;101002.03;5038400;28;20024;-69
2022/07/13 07:36:07;;;;;;;5.72;1.30;;;;;;;30.57;44.13;100999.53;5057729;28;20055;-68
2022/07/13 07:38:33;;;;;;;2.08;1.30;;;;;;;30.75;43.48;101008.00;5074830;28;20035;-68
2022/07/13 07:40:59;;;;;;;2.05;1.08;;;;;;;30.94;43.51;101016.88;5041229;28;20481;-68
2022/07/13 07:43:25;;;;;;;2.72;0.90;;;;;;;31.11;43.14;101014.28;5074367;28;20029;-68
2022/07/13 07:45:50;;;;;;;5.05;1.00;;;;;;;31.30;42.71;101013.69;5074177;28;20044;-69
2022/07/13 07:48:15;;;;;;;2.15;1.10;;;;;;;31.44;42.44;101009.88;5041285;28;20029;-69
2022/07/13 07:50:41;;;;;;;1.92;1.10;;;;;;;31.56;42.62;101017.13;5102437;28;20025;-68
2022/07/13 07:53:06;;;;;;;3.53;1.20;;;;;;;31.69;42.32;101012.47;5075797;28;20414;-68
2022/07/13 07:55:32;;;;;;;2.05;1.02;;;;;;;31.86;41.77;101013.50;5045154;28;20063;-68
2022/07/13 07:57:58;;;;;;;1.95;0.90;;;;;;;32.01;41.38;101012.13;5061550;28;20056;-68
2022/07/13 08:00:24;;;;;;;2.28;0.80;;;;;;;32.15;41.05;101010.28;5078539;28;20084;-68
2022/07/13 08:02:49;;;;;;;5.15;1.38;;;;;;;32.18;41.96;101018.88;5061503;28;20512;-68
2022/07/13 08:05:14;;;;;;;3.00;0.93;;;;;;;32.34;40.70;101020.31;5061432;28;20043;-69
2022/07/13 08:07:44;;;;;;;5.03;1.30;;;;;;;32.44;40.32;101014.41;5078263;28;20481;-68
2022/07/13 08:10:10;;;;;;;1.98;1.15;;;;;;;32.63;40.69;101012.91;5061773;28;20030;-69
2022/07/13 08:12:36;;;;;;;2.47;1.08;;;;;;;32.82;40.35;101001.94;5061708;28;20024;-68
2022/07/13 08:15:02;;;;;;;2.85;0.93;;;;;;;32.95;39.97;101005.81;5045317;28;20039;-68
2022/07/13 08:17:27;;;;;;;5.05;1.10;;;;;;;33.10;39.61;101010.13;5061277;28;20082;-69
2022/07/13 08:19:53;;;;;;;3.45;1.02;;;;;;;33.24;39.32;101008.22;5077885;28;20033;-69
2022/07/13 08:22:19;;;;;;;4.82;1.13;;;;;;;33.32;39.05;101001.91;5044437;28;20093;-69
2022/07/13 08:24:44;;;;;;;2.67;0.80;;;;;;;33.33;37.26;100999.84;5043820;28;20108;-68
2022/07/13 08:27:10;;;;;;;0.93;0.75;;;;;;;33.55;38.19;100998.22;5055953;28;20090;-69
2022/07/13 08:29:35;;;;;;;3.03;0.82;;;;;;;33.76;38.35;100999.03;5061092;28;20082;-69
2022/07/13 08:32:01;;;;;;;2.30;0.73;;;;;;;33.97;37.95;100998.56;5078871;28;20032;-68
2022/07/13 08:39:55;;;;;;;5.43;1.10;;;;;;;34.36;36.42;100996.91;5061523;28;20021;-68
2022/07/13 08:42:20;;;;;;;2.88;0.90;;;;;;;34.56;37.17;100994.00;5057860;28;20108;-69
2022/07/13 08:44:46;;;;;;;2.17;0.82;;;;;;;34.70;37.11;100985.00;5061068;28;20476;-68
2022/07/13 08:47:11;;;;;;;3.90;0.95;;;;;;;34.84;36.88;100991.69;5044222;28;20029;-69
2022/07/13 08:49:37;;;;;;;2.03;0.75;;;;;;;35.01;36.63;100992.47;5060688;28;20055;-68
2022/07/13 08:52:02;;;;;;;0.88;0.70;;;;;;;35.13;36.53;100994.66;5077476;28;20047;-68
2022/07/13 08:54:29;;;;;;;0.90;0.68;;;;;;;35.27;36.21;101005.84;5060361;28;20082;-68
2022/07/13 08:56:55;;;;;;;1.35;0.75;;;;;;;35.36;36.25;101003.13;5059677;28;20393;-69
2022/07/13 08:59:21;;;;;;;1.10;0.88;;;;;;;35.46;36.37;100992.50;5059787;28;20032;-68
2022/07/13 09:01:49;;;;;;;2.67;0.70;;;;;;;35.62;35.69;101003.25;5025709;28;20036;-68
2022/07/13 09:04:14;;;;;;;1.33;0.70;;;;;;;35.71;35.73;100997.63;5059585;28;20024;-68
2022/07/13 09:06:40;;;;;;;1.98;0.90;;;;;;;35.84;35.14;100993.97;5075701;28;20036;-68
2022/07/13 09:09:27;;;;;;;1.42;0.80;;;;;;;35.93;34.76;100991.22;5059565;28;20444;-68
2022/07/13 09:11:56;;;;;;;1.33;0.70;;;;;;;36.02;34.63;101002.91;5050489;28;20036;-68
2022/07/13 09:14:25;;;;;;;1.27;0.70;;;;;;;36.11;35.02;101003.09;5059495;28;20029;-68
2022/07/13 09:16:52;;;;;;;1.58;0.60;;;;;;;36.24;34.67;101000.19;5072606;28;20037;-68
2022/07/13 09:19:17;;;;;;;1.55;0.75;;;;;;;36.37;34.14;100998.13;5052968;28;20119;-68
2022/07/13 09:21:43;;;;;;;3.90;0.70;;;;;;;36.44;33.87;100997.91;5050384;28;20060;-68
2022/07/13 09:24:08;;;;;;;2.05;0.60;;;;;;;36.51;32.49;101002.66;5073615;28;20059;-68
2022/07/13 09:26:41;;;;;;;1.63;0.57;;;;;;;36.65;31.02;101007.19;5075539;28;20397;-68
2022/07/13 09:29:06;;;;;;;2.45;0.65;;;;;;;36.75;31.91;101000.25;5025204;28;20056;-68
2022/07/13 09:31:52;;;;;;;0.90;0.57;;;;;;;36.87;32.66;101004.41;5042256;28;20035;-68
2022/07/13 09:34:18;;;;;;;2.03;0.73;;;;;;;36.85;29.11;101001.16;5050423;28;20025;-68
2022/07/13 09:36:43;;;;;;;2.42;0.60;;;;;;;36.99;29.14;101003.56;5038623;28;20035;-69
2022/07/13 09:39:11;;;;;;;1.90;0.60;;;;;;;37.12;29.20;100997.78;5058680;28;20037;-68
2022/07/13 09:41:37;;;;;;;2.35;0.73;;;;;;;37.27;30.80;100995.19;5059113;28;20409;-68
2022/07/13 09:47:01;;;;;;;2.47;0.60;;;;;;;37.52;30.49;100998.00;5103550;28;20021;-68
2022/07/13 09:49:44;;;;;;;4.13;0.60;;;;;;;37.50;28.55;100994.78;5041720;28;20078;-68
2022/07/13 09:52:16;;;;;;;2.40;0.80;;;;;;;37.61;29.04;100996.47;5043061;28;20044;-68
2022/07/13 09:54:42;;;;;;;2.08;0.68;;;;;;;37.73;29.40;100999.31;5047944;28;20029;-68
2022/07/13 09:57:13;;;;;;;3.22;0.60;;;;;;;37.84;27.99;100996.00;5016673;28;1198407;-68
2022/07/13 09:59:42;;;;;;;1.17;0.68;;;;;;;37.94;28.43;100991.06;5056350;28;20040;-68
2022/07/13 10:02:08;;;;;;;3.50;0.77;;;;;;;38.04;28.56;100997.78;5042435;28;20020;-68
2022/07/13 10:04:35;;;;;;;2.85;0.88;;;;;;;38.18;27.97;101000.09;5042556;28;20020;-68
2022/07/13 10:07:01;;;;;;;5.10;1.35;;;;;;;38.31;28.60;101000.84;5059671;28;20028;-68
2022/07/13 10:09:32;;;;;;;4.57;0.90;;;;;;;38.35;27.19;100992.78;5056707;28;20493;-68
2022/07/13 10:11:58;;;;;;;2.23;0.70;;;;;;;38.43;27.92;100991.25;5060336;28;20036;-68
2022/07/13 10:14:25;;;;;;;2.20;0.60;;;;;;;38.58;27.79;100987.75;5058266;28;20639;-69
2022/07/13 10:16:52;;;;;;;0.88;0.55;;;;;;;38.73;27.92;100994.59;5062672;28;20025;-68
2022/07/13 10:19:18;;;;;;;2.28;0.63;;;;;;;38.75;27.67;100992.00;5039569;28;20037;-68
2022/07/13 10:21:59;;;;;;;2.85;0.80;;;;;;;38.75;26.64;100985.38;5042397;28;20032;-68
2022/07/13 10:24:25;;;;;;;0.95;0.57;;;;;;;38.74;26.76;100983.78;5075791;28;20052;-68
2022/07/13 10:26:50;;;;;;;3.70;0.60;;;;;;;38.81;25.89;100978.47;5059239;28;20435;-68
2022/07/13 10:29:16;;;;;;;3.05;0.80;;;;;;;38.90;26.64;100980.63;5058886;28;20035;-68
2022/07/13 10:31:42;;;;;;;2.63;0.75;;;;;;;38.87;27.08;100982.38;5040635;28;20075;-68
2022/07/13 10:34:09;;;;;;;4.00;0.70;;;;;;;38.96;26.28;100984.50;5025550;28;20115;-68
2022/07/13 10:36:53;;;;;;;2.47;0.80;;;;;;;38.99;26.51;100982.75;5022254;28;20036;-68
2022/07/13 10:39:19;;;;;;;1.30;0.60;;;;;;;39.08;26.04;100986.44;5075235;28;20032;-68
2022/07/13 10:42:04;;;;;;;5.47;0.80;;;;;;;39.20;25.88;100984.72;5059090;28;20030;-68
2022/07/13 10:44:36;;;;;;;3.83;0.60;;;;;;;39.33;25.59;100976.66;5041681;28;20190;-68
2022/07/13 10:47:03;;;;;;;3.08;0.73;;;;;;;39.31;25.75;100979.25;5074907;28;20108;-68
2022/07/13 10:49:35;;;;;;;0.52;0.50;;;;;;;39.41;25.97;100979.25;5074624;28;20479;-68
2022/07/13 10:52:19;;;;;;;1.88;0.70;;;;;;;39.62;25.77;100983.25;5071323;28;20509;-68
2022/07/13 10:55:03;;;;;;;2.25;0.60;;;;;;;39.64;25.98;100975.69;5090944;28;20129;-68
2022/07/13 10:57:32;;;;;;;2.05;0.68;;;;;;;39.87;25.43;100965.53;5072478;28;20121;-68
2022/07/13 11:00:16;;;;;;;5.57;0.80;;;;;;;39.81;24.61;100969.56;5058286;28;20455;-68
2022/07/13 11:02:43;;;;;;;1.85;0.60;;;;;;;39.94;25.17;100970.19;5053501;28;20397;-69
2022/07/13 11:05:09;;;;;;;3.67;0.80;;;;;;;39.99;25.28;100979.03;5075324;28;20039;-68
2022/07/13 11:07:43;;;;;;;2.20;0.73;;;;;;;39.94;24.38;100970.19;5091714;28;20028;-68
2022/07/13 11:10:18;;;;;;;3.63;0.60;;;;;;;40.04;24.97;100965.97;5041494;28;20365;-68
2022/07/13 11:13:09;;;;;;;2.60;0.60;;;;;;;40.15;25.20;100969.16;5058391;28;20158;-68
2022/07/13 11:15:50;;;;;;;2.20;0.68;;;;;;;40.27;24.95;100972.38;5075142;28;20119;-69
2022/07/13 11:18:22;;;;;;;1.80;0.52;;;;;;;40.22;23.91;100976.75;5072631;28;20370;-68
2022/07/13 11:21:22;;;;;;;3.90;0.65;;;;;;;40.32;23.54;100974.63;5089514;28;20506;-68
2022/07/13 11:26:53;;;;;;;2.65;0.95;;;;;;;40.39;24.02;100966.31;5081380;28;20033;-68
2022/07/13 11:29:18;;;;;;;3.88;0.80;;;;;;;40.57;24.04;100977.09;5074625;28;20533;-68
2022/07/13 11:31:44;;;;;;;3.53;0.73;;;;;;;40.74;23.76;100967.97;5074847;28;20064;-68
2022/07/13 11:34:09;;;;;;;0.75;0.40;;;;;;;40.89;23.97;100965.13;5057824;28;20119;-68